createdAt,value
2023-02-05T00:00:07.623Z,0
2023-02-05T00:03:08.135Z,0
2023-02-05T00:06:07.596Z,0
2023-02-05T00:09:07.568Z,0
2023-02-05T00:12:07.618Z,0
2023-02-05T00:15:07.575Z,0
2023-02-05T00:18:07.559Z,0
2023-02-05T00:21:07.609Z,0
2023-02-05T00:24:07.610Z,0
2023-02-05T00:27:07.596Z,0
2023-02-05T00:30:07.612Z,0
2023-02-05T00:33:07.511Z,0
2023-02-05T00:36:07.605Z,0
2023-02-05T00:39:07.543Z,0
2023-02-05T00:42:07.560Z,0
2023-02-05T00:45:07.571Z,0
2023-02-05T00:51:07.614Z,0
2023-02-05T00:54:07.675Z,0
2023-02-05T00:57:07.549Z,0
2023-02-05T01:00:07.563Z,0
2023-02-05T01:03:07.596Z,0
2023-02-05T01:06:07.680Z,0
2023-02-05T01:09:07.726Z,0
2023-02-05T01:12:07.734Z,0
2023-02-05T01:15:07.789Z,0
2023-02-05T01:18:08.694Z,0
2023-02-05T01:21:07.662Z,0
2023-02-05T01:24:12.651Z,0
2023-02-05T01:27:07.722Z,0
2023-02-05T01:30:07.671Z,0
2023-02-05T01:33:07.629Z,0
2023-02-05T01:36:09.529Z,0
2023-02-05T01:39:07.615Z,0
2023-02-05T01:42:08.112Z,0
2023-02-05T01:45:07.573Z,0
2023-02-05T01:48:07.827Z,0
2023-02-05T01:51:07.610Z,0
2023-02-05T01:54:07.623Z,0
2023-02-05T01:57:07.704Z,0
2023-02-05T02:00:07.628Z,0
2023-02-05T02:03:07.660Z,0
2023-02-05T02:06:07.593Z,0
2023-02-05T02:09:07.968Z,0
2023-02-05T02:12:07.646Z,0
2023-02-05T02:15:07.630Z,0
2023-02-05T02:18:07.710Z,0
2023-02-05T02:21:07.667Z,0
2023-02-05T02:24:07.552Z,0
2023-02-05T02:27:07.553Z,0
2023-02-05T02:30:07.690Z,0
2023-02-05T02:33:07.610Z,0
2023-02-05T02:36:07.721Z,0
2023-02-05T02:39:07.712Z,0
2023-02-05T02:42:07.547Z,0
2023-02-05T02:45:07.584Z,0
2023-02-05T02:48:07.576Z,0
2023-02-05T02:51:07.527Z,0
2023-02-05T02:54:07.574Z,0
2023-02-05T02:57:07.574Z,0
2023-02-05T03:00:07.621Z,0
2023-02-05T03:03:07.750Z,0
2023-02-05T03:06:07.597Z,0
2023-02-05T03:09:07.574Z,0
2023-02-05T03:12:07.636Z,0
2023-02-05T03:15:07.589Z,0
2023-02-05T03:18:07.754Z,0
2023-02-05T03:21:07.558Z,0
2023-02-05T03:24:07.581Z,0
2023-02-05T03:27:07.544Z,0
2023-02-05T03:30:07.609Z,0
2023-02-05T03:33:07.540Z,0
2023-02-05T03:36:07.575Z,0
2023-02-05T03:39:07.589Z,0
2023-02-05T03:42:07.610Z,0
2023-02-05T03:45:07.527Z,0
2023-02-05T03:48:07.548Z,0
2023-02-05T03:51:07.594Z,0
2023-02-05T03:54:07.499Z,0
2023-02-05T03:57:07.598Z,0
2023-02-05T04:00:07.594Z,0
2023-02-05T04:03:07.565Z,0
2023-02-05T04:06:07.528Z,0
2023-02-05T04:09:07.579Z,0
2023-02-05T04:12:07.557Z,0
2023-02-05T04:15:07.629Z,0
2023-02-05T04:18:07.552Z,0
2023-02-05T04:21:07.530Z,0
2023-02-05T04:24:07.935Z,0
2023-02-05T04:27:07.585Z,0
2023-02-05T04:30:07.632Z,0
2023-02-05T04:33:07.530Z,0
2023-02-05T04:36:07.573Z,0
2023-02-05T04:39:07.574Z,0
2023-02-05T04:42:07.537Z,0
2023-02-05T04:45:07.572Z,0
2023-02-05T04:48:07.560Z,0
2023-02-05T04:51:07.592Z,0
2023-02-05T04:54:07.589Z,0
2023-02-05T04:57:07.533Z,0
2023-02-05T05:00:07.635Z,0
2023-02-05T05:03:07.570Z,0
2023-02-05T05:06:07.594Z,0
2023-02-05T05:09:07.599Z,0
2023-02-05T05:12:07.579Z,0
2023-02-05T05:15:07.566Z,0
2023-02-05T05:18:07.588Z,0
2023-02-05T05:21:07.584Z,0
2023-02-05T05:24:07.886Z,0
2023-02-05T05:27:07.560Z,0
2023-02-05T05:30:07.609Z,0
2023-02-05T05:33:07.522Z,0
2023-02-05T05:36:07.547Z,0
2023-02-05T05:39:07.511Z,0
2023-02-05T05:42:07.606Z,0
2023-02-05T05:45:07.566Z,0
2023-02-05T05:48:07.607Z,0
2023-02-05T05:51:07.604Z,0
2023-02-05T05:54:07.624Z,0
2023-02-05T05:57:07.647Z,0
2023-02-05T06:00:07.679Z,0
2023-02-05T06:03:07.537Z,0
2023-02-05T06:06:07.595Z,0
2023-02-05T06:09:07.547Z,0
2023-02-05T06:12:07.519Z,0
2023-02-05T06:15:07.604Z,0
2023-02-05T06:18:07.522Z,0
2023-02-05T06:21:07.558Z,3
2023-02-05T06:24:07.639Z,3
2023-02-05T06:27:07.574Z,7
2023-02-05T06:30:07.582Z,10
2023-02-05T06:33:07.551Z,13
2023-02-05T06:36:07.629Z,20
2023-02-05T06:39:07.565Z,23
2023-02-05T06:42:07.591Z,40
2023-02-05T06:45:07.750Z,70
2023-02-05T06:48:07.535Z,107
2023-02-05T06:51:07.520Z,140
2023-02-05T06:54:07.665Z,123
2023-02-05T06:57:07.603Z,130
2023-02-05T07:00:07.780Z,153
2023-02-05T07:03:07.858Z,173
2023-02-05T07:06:07.737Z,197
2023-02-05T07:09:07.626Z,217
2023-02-05T07:12:07.641Z,230
2023-02-05T07:15:07.608Z,277
2023-02-05T07:18:07.669Z,343
2023-02-05T07:21:07.592Z,410
2023-02-05T07:24:07.750Z,483
2023-02-05T07:27:07.571Z,567
2023-02-05T07:30:07.666Z,707
2023-02-05T07:33:07.654Z,873
2023-02-05T07:36:07.702Z,1087
2023-02-05T07:39:07.601Z,1280
2023-02-05T07:42:07.676Z,1453
2023-02-05T07:45:07.636Z,1603
2023-02-05T07:48:07.618Z,1710
2023-02-05T07:51:07.601Z,1817
2023-02-05T07:54:07.725Z,1910
2023-02-05T07:57:09.781Z,2050
2023-02-05T08:00:08.195Z,2277
2023-02-05T08:03:07.640Z,2593
2023-02-05T08:06:07.650Z,2917
2023-02-05T08:09:07.608Z,3223
2023-02-05T08:12:07.637Z,3727
2023-02-05T08:15:07.606Z,4173
2023-02-05T08:18:07.617Z,4230
2023-02-05T08:21:07.688Z,4473
2023-02-05T08:24:07.616Z,4750
2023-02-05T08:27:07.592Z,5100
2023-02-05T08:30:07.707Z,5013
2023-02-05T08:33:07.637Z,4933
2023-02-05T08:36:07.683Z,5137
2023-02-05T08:39:07.633Z,5567
2023-02-05T08:42:07.678Z,6017
2023-02-05T08:45:07.584Z,6273
2023-02-05T08:48:08.139Z,6680
2023-02-05T08:51:07.699Z,7157
2023-02-05T08:54:07.722Z,6907
2023-02-05T08:57:07.685Z,6250
2023-02-05T09:00:07.671Z,6443
2023-02-05T09:03:07.567Z,7817
2023-02-05T09:06:07.690Z,8940
2023-02-05T09:09:07.585Z,9637
2023-02-05T09:12:07.713Z,10060
2023-02-05T09:15:07.676Z,10490
2023-02-05T09:18:07.666Z,10933
2023-02-05T09:21:07.667Z,10763
2023-02-05T09:24:07.643Z,10733
2023-02-05T09:27:09.619Z,10790
2023-02-05T09:30:07.704Z,10687
2023-02-05T09:33:07.643Z,11353
2023-02-05T09:36:07.691Z,10717
2023-02-05T09:42:07.630Z,8550
2023-02-05T09:45:07.680Z,8227
2023-02-05T09:48:07.598Z,8330
2023-02-05T09:51:07.627Z,8530
2023-02-05T09:54:07.707Z,8747
2023-02-05T09:57:07.680Z,8977
2023-02-05T10:00:07.757Z,9420
2023-02-05T10:03:07.593Z,10233
2023-02-05T10:06:07.629Z,10993
2023-02-05T10:09:07.647Z,12117
2023-02-05T10:12:07.627Z,14190
2023-02-05T10:15:07.609Z,13350
2023-02-05T10:18:07.697Z,13990
2023-02-05T10:21:07.655Z,13513
2023-02-05T10:24:07.662Z,13863
2023-02-05T10:27:07.634Z,15217
2023-02-05T10:30:07.750Z,16323
2023-02-05T10:33:07.796Z,16680
2023-02-05T10:36:07.661Z,17257
2023-02-05T10:39:07.582Z,17913
2023-02-05T10:42:07.636Z,16397
2023-02-05T10:45:07.669Z,18060
2023-02-05T10:48:07.714Z,16407
2023-02-05T10:51:07.688Z,15760
2023-02-05T10:54:07.678Z,13507
2023-02-05T10:57:07.688Z,13060
2023-02-05T11:00:08.002Z,13210
2023-02-05T11:03:07.782Z,12697
2023-02-05T11:06:07.618Z,11883
2023-02-05T11:09:07.692Z,11620
2023-02-05T11:12:07.614Z,11307
2023-02-05T11:15:07.659Z,11783
2023-02-05T11:18:07.688Z,12703
2023-02-05T11:21:07.634Z,13447
2023-02-05T11:24:07.670Z,15050
2023-02-05T11:27:08.503Z,17443
2023-02-05T11:30:07.845Z,20083
2023-02-05T11:33:07.674Z,22013
2023-02-05T11:36:07.606Z,21220
2023-02-05T11:39:07.574Z,19410
2023-02-05T11:42:07.597Z,16273
2023-02-05T11:45:07.635Z,16500
2023-02-05T11:48:07.583Z,15930
2023-02-05T11:51:07.603Z,14440
2023-02-05T11:54:07.623Z,13337
2023-02-05T11:57:07.600Z,12933
2023-02-05T12:00:07.690Z,12743
2023-02-05T12:03:08.013Z,13407
2023-02-05T12:06:07.638Z,15590
2023-02-05T12:09:07.576Z,16977
2023-02-05T12:12:07.658Z,15950
2023-02-05T12:15:07.624Z,15310
2023-02-05T12:18:07.624Z,15320
2023-02-05T12:21:07.559Z,15997
2023-02-05T12:24:07.634Z,15323
2023-02-05T12:27:07.638Z,12310
2023-02-05T12:30:07.806Z,9980
2023-02-05T12:33:07.570Z,8087
2023-02-05T12:36:07.624Z,7463
2023-02-05T12:39:10.037Z,8313
2023-02-05T12:42:07.634Z,9897
2023-02-05T12:45:07.740Z,10700
2023-02-05T12:48:07.671Z,10437
2023-02-05T12:51:07.599Z,10977
2023-02-05T12:54:07.633Z,11793
2023-02-05T12:57:07.606Z,11067
2023-02-05T13:00:07.661Z,9500
2023-02-05T13:03:07.602Z,8577
2023-02-05T13:06:07.698Z,8690
2023-02-05T13:09:07.684Z,9250
2023-02-05T13:12:07.683Z,10407
2023-02-05T13:15:07.631Z,11180
2023-02-05T13:18:07.622Z,11563
2023-02-05T13:21:07.591Z,12833
2023-02-05T13:24:07.677Z,13180
2023-02-05T13:27:07.647Z,11700
2023-02-05T13:30:09.479Z,12013
2023-02-05T13:33:07.590Z,12113
2023-02-05T13:36:07.706Z,11453
2023-02-05T13:39:07.669Z,10427
2023-02-05T13:42:07.634Z,11153
2023-02-05T13:45:07.624Z,10847
2023-02-05T13:48:07.630Z,11163
2023-02-05T13:51:07.568Z,12140
2023-02-05T13:54:07.667Z,10793
2023-02-05T13:57:07.600Z,10347
2023-02-05T14:00:07.700Z,9847
2023-02-05T14:03:07.621Z,9563
2023-02-05T14:06:07.652Z,9270
2023-02-05T14:09:07.576Z,9240
2023-02-05T14:12:07.616Z,9727
2023-02-05T14:15:07.599Z,9903
2023-02-05T14:18:07.641Z,9250
2023-02-05T14:21:07.590Z,8557
2023-02-05T14:24:07.634Z,17410
2023-02-05T14:27:07.715Z,17893
2023-02-05T14:30:07.700Z,16680
2023-02-05T14:33:07.570Z,12660
2023-02-05T14:36:07.604Z,10983
2023-02-05T14:39:07.662Z,10500
2023-02-05T14:42:07.685Z,9153
2023-02-05T14:45:07.647Z,7597
2023-02-05T14:48:07.613Z,8060
2023-02-05T14:51:07.637Z,6803
2023-02-05T14:54:07.698Z,5157
2023-02-05T14:57:07.615Z,5000
2023-02-05T15:00:07.773Z,4503
2023-02-05T15:03:07.672Z,3787
2023-02-05T15:06:07.597Z,3437
2023-02-05T15:09:07.615Z,2877
2023-02-05T15:12:07.671Z,2670
2023-02-05T15:15:09.240Z,2467
2023-02-05T15:18:07.612Z,2283
2023-02-05T15:21:07.606Z,1830
2023-02-05T15:24:07.588Z,1650
2023-02-05T15:27:07.641Z,1443
2023-02-05T15:30:07.860Z,1603
2023-02-05T15:33:07.660Z,1667
2023-02-05T15:36:08.739Z,1433
2023-02-05T15:39:07.655Z,1193
2023-02-05T15:42:07.710Z,1063
2023-02-05T15:45:07.585Z,1017
2023-02-05T15:48:07.675Z,967
2023-02-05T15:51:07.586Z,883
2023-02-05T15:54:07.752Z,767
2023-02-05T15:57:07.634Z,610
2023-02-05T16:00:07.835Z,513
2023-02-05T16:03:07.912Z,423
2023-02-05T16:06:07.586Z,353
2023-02-05T16:09:07.804Z,297
2023-02-05T16:12:07.605Z,250
2023-02-05T16:15:07.571Z,200
2023-02-05T16:18:07.602Z,157
2023-02-05T16:21:07.563Z,117
2023-02-05T16:24:07.591Z,83
2023-02-05T16:27:07.586Z,53
2023-02-05T16:30:07.768Z,33
2023-02-05T16:33:07.727Z,20
2023-02-05T16:36:07.536Z,10
2023-02-05T16:39:07.615Z,7
2023-02-05T16:42:07.537Z,3
2023-02-05T16:45:07.589Z,3
2023-02-05T16:48:07.803Z,0
2023-02-05T16:51:07.545Z,0
2023-02-05T16:54:07.586Z,0
2023-02-05T16:57:07.598Z,0
2023-02-05T17:00:07.795Z,0
2023-02-05T17:03:07.548Z,0
2023-02-05T17:06:07.582Z,0
2023-02-05T17:09:07.575Z,0
2023-02-05T17:12:07.525Z,0
2023-02-05T17:15:07.623Z,0
2023-02-05T17:18:07.493Z,0
2023-02-05T17:21:07.548Z,0
2023-02-05T17:24:07.564Z,0
2023-02-05T17:27:07.581Z,0
2023-02-05T17:30:07.659Z,0
2023-02-05T17:33:07.545Z,0
2023-02-05T17:36:07.571Z,0
2023-02-05T17:39:07.517Z,0
2023-02-05T17:42:07.575Z,0
2023-02-05T17:45:07.516Z,0
2023-02-05T17:48:07.643Z,0
2023-02-05T17:51:07.653Z,0
2023-02-05T17:54:07.599Z,0
2023-02-05T17:57:09.700Z,0
2023-02-05T18:00:07.622Z,0
2023-02-05T18:03:07.699Z,0
2023-02-05T18:06:07.527Z,0
2023-02-05T18:09:07.554Z,0
2023-02-05T18:12:07.500Z,0
2023-02-05T18:15:07.605Z,0
2023-02-05T18:18:07.614Z,0
2023-02-05T18:21:07.565Z,0
2023-02-05T18:24:07.544Z,0
2023-02-05T18:27:07.535Z,0
2023-02-05T18:30:07.604Z,0
2023-02-05T18:33:07.594Z,0
2023-02-05T18:36:07.578Z,0
2023-02-05T18:39:07.582Z,0
2023-02-05T18:42:07.571Z,0
2023-02-05T18:45:07.519Z,0
2023-02-05T18:48:07.612Z,0
2023-02-05T18:51:07.531Z,0
2023-02-05T18:54:07.536Z,0
2023-02-05T18:57:07.488Z,0
2023-02-05T19:00:07.634Z,0
2023-02-05T19:03:07.747Z,0
2023-02-05T19:06:07.614Z,0
2023-02-05T19:09:07.549Z,0
2023-02-05T19:12:07.635Z,0
2023-02-05T19:15:07.586Z,0
2023-02-05T19:18:07.787Z,0
2023-02-05T19:21:07.588Z,0
2023-02-05T19:24:07.866Z,0
2023-02-05T19:27:07.571Z,0
2023-02-05T19:30:07.614Z,0
2023-02-05T19:33:07.576Z,0
2023-02-05T19:36:07.577Z,0
2023-02-05T19:39:07.727Z,0
2023-02-05T19:42:07.576Z,0
2023-02-05T19:45:07.612Z,0
2023-02-05T19:48:07.544Z,0
2023-02-05T19:51:07.745Z,0
2023-02-05T19:54:07.576Z,0
2023-02-05T19:57:07.640Z,0
2023-02-05T20:00:07.614Z,0
2023-02-05T20:03:07.596Z,0
2023-02-05T20:06:07.521Z,0
2023-02-05T20:09:07.539Z,0
2023-02-05T20:12:07.554Z,0
2023-02-05T20:15:07.696Z,0
2023-02-05T20:18:07.557Z,0
2023-02-05T20:21:07.650Z,0
2023-02-05T20:24:07.562Z,0
2023-02-05T20:27:07.673Z,0
2023-02-05T20:30:07.544Z,0
2023-02-05T20:33:07.568Z,0
2023-02-05T20:36:07.533Z,0
2023-02-05T20:39:07.566Z,0
2023-02-05T20:42:07.615Z,0
2023-02-05T20:45:07.544Z,0
2023-02-05T20:48:07.560Z,0
2023-02-05T20:51:07.544Z,0
2023-02-05T20:54:07.586Z,0
2023-02-05T20:57:07.589Z,0
2023-02-05T21:00:07.656Z,0
2023-02-05T21:03:07.555Z,0
2023-02-05T21:06:07.615Z,0
2023-02-05T21:09:07.626Z,0
2023-02-05T21:12:07.587Z,0
2023-02-05T21:15:07.536Z,0
2023-02-05T21:18:07.580Z,0
2023-02-05T21:21:07.533Z,0
2023-02-05T21:24:07.512Z,0
2023-02-05T21:27:07.584Z,0
2023-02-05T21:30:07.541Z,0
2023-02-05T21:33:07.558Z,0
2023-02-05T21:36:07.554Z,0
2023-02-05T21:39:07.568Z,0
2023-02-05T21:42:07.554Z,0
2023-02-05T21:45:07.884Z,0
2023-02-05T21:48:07.540Z,0
2023-02-05T21:51:07.551Z,0
2023-02-05T21:54:07.574Z,0
2023-02-05T21:57:07.615Z,0
2023-02-05T22:00:07.718Z,0
2023-02-05T22:03:07.545Z,0
2023-02-05T22:06:07.613Z,0
2023-02-05T22:09:07.567Z,0
2023-02-05T22:12:07.708Z,0
2023-02-05T22:15:07.551Z,0
2023-02-05T22:18:07.640Z,0
2023-02-05T22:21:07.535Z,0
2023-02-05T22:24:08.158Z,0
2023-02-05T22:27:07.614Z,0
2023-02-05T22:30:07.655Z,0
2023-02-05T22:33:07.572Z,0
2023-02-05T22:36:07.616Z,0
2023-02-05T22:39:07.537Z,0
2023-02-05T22:42:07.554Z,0
2023-02-05T22:45:07.634Z,0
2023-02-05T22:48:07.546Z,0
2023-02-05T22:51:07.645Z,0
2023-02-05T22:54:07.569Z,0
2023-02-05T22:57:07.576Z,0
2023-02-05T23:00:08.279Z,0
2023-02-05T23:03:07.656Z,0
2023-02-05T23:06:07.594Z,0
2023-02-05T23:09:07.573Z,0
2023-02-05T23:12:07.565Z,0
2023-02-05T23:15:07.580Z,0
2023-02-05T23:18:07.603Z,0
2023-02-05T23:21:07.602Z,0
2023-02-05T23:24:07.549Z,0
2023-02-05T23:27:07.580Z,0
2023-02-05T23:30:07.623Z,0
2023-02-05T23:33:07.593Z,0
2023-02-05T23:36:07.535Z,0
2023-02-05T23:39:07.551Z,0
2023-02-05T23:42:07.571Z,0
2023-02-05T23:45:07.552Z,0
2023-02-05T23:48:07.581Z,0
2023-02-05T23:51:07.572Z,0
2023-02-05T23:54:07.620Z,0
2023-02-05T23:57:07.534Z,0
